Time;durP1;ratioP1;P1;durP2;ratioP2;P2;SDS_P1;SDS_P2;PMS_P1;PMS_P2;Temp;Humidity;BMP_temperature;BMP_pressure;BME280_temperature;BME280_humidity;BME280_pressure;Samples;Min_cycle;Max_cycle;Signal;HPM_P1;HPM_P2
2023/07/30 00:01:30;;;;;;;6.00;4.13;;;;;;;21.44;60.94;93115.56;5010041;28;20095;-92
2023/07/30 00:03:56;;;;;;;6.38;4.28;;;;;;;21.42;60.85;93110.63;5016258;28;20045;-91
2023/07/30 00:06:22;;;;;;;6.38;4.70;;;;;;;21.43;60.86;93111.38;5031327;28;20411;-92
2023/07/30 00:08:48;;;;;;;6.60;4.13;;;;;;;21.44;61.21;93101.81;5015979;28;20079;-93
2023/07/30 00:11:13;;;;;;;7.75;4.20;;;;;;;21.42;61.02;93091.38;5030687;28;20049;-93
2023/07/30 00:13:39;;;;;;;6.72;4.55;;;;;;;21.42;60.87;93101.63;5015849;28;20036;-93
2023/07/30 00:16:04;;;;;;;6.38;4.40;;;;;;;21.42;61.02;93098.91;5015840;28;20049;-92
2023/07/30 00:18:30;;;;;;;5.20;3.95;;;;;;;21.42;61.09;93102.38;5015042;28;20067;-92
2023/07/30 00:20:56;;;;;;;5.22;4.30;;;;;;;21.41;61.03;93103.66;5015412;28;20040;-94
2023/07/30 00:23:21;;;;;;;5.47;3.78;;;;;;;21.42;60.89;93099.63;5014353;28;20041;-92
2023/07/30 00:25:47;;;;;;;5.35;3.95;;;;;;;21.41;60.97;93095.41;5015272;28;20537;-92
2023/07/30 00:28:12;;;;;;;4.13;3.67;;;;;;;21.40;60.71;93088.44;5014600;28;20044;-91
2023/07/30 00:30:37;;;;;;;5.20;3.88;;;;;;;21.40;60.74;93087.69;5015159;28;20037;-92
2023/07/30 00:33:03;;;;;;;4.47;3.67;;;;;;;21.38;61.02;93093.00;5014669;28;20044;-92
2023/07/30 00:35:28;;;;;;;5.60;3.88;;;;;;;21.39;60.88;93088.97;5014316;28;20040;-92
2023/07/30 00:37:54;;;;;;;4.47;3.58;;;;;;;21.38;60.76;93090.97;5015241;28;20033;-92
2023/07/30 00:40:19;;;;;;;4.10;3.40;;;;;;;21.37;60.88;93092.25;5014141;28;20033;-92
2023/07/30 00:42:44;;;;;;;6.97;3.67;;;;;;;21.38;61.18;93095.75;5015169;28;20067;-93
2023/07/30 00:45:10;;;;;;;6.05;3.47;;;;;;;21.40;60.79;93101.44;5031130;28;20028;-92
2023/07/30 00:47:37;;;;;;;6.80;3.97;;;;;;;21.39;60.98;93094.47;5013074;28;20112;-93
2023/07/30 00:50:05;;;;;;;6.97;4.03;;;;;;;21.37;60.84;93092.25;5015064;28;20112;-92
2023/07/30 00:52:30;;;;;;;4.18;3.72;;;;;;;21.40;61.07;93101.44;5021187;28;20041;-92
2023/07/30 00:54:57;;;;;;;5.88;4.53;;;;;;;21.40;60.67;93090.44;5014783;28;20158;-92
2023/07/30 00:57:23;;;;;;;5.65;3.80;;;;;;;21.39;61.00;93094.47;5013971;28;20117;-92
2023/07/30 00:59:48;;;;;;;5.97;3.83;;;;;;;21.38;60.71;93085.47;5014487;28;20392;-92
2023/07/30 01:02:13;;;;;;;4.90;3.63;;;;;;;21.39;60.92;93089.69;5013112;28;20040;-93
2023/07/30 01:04:40;;;;;;;4.75;3.80;;;;;;;21.41;60.83;93097.41;5031334;28;20037;-91
2023/07/30 01:07:06;;;;;;;4.47;3.28;;;;;;;21.39;60.85;93086.94;5014359;28;20470;-92
2023/07/30 01:09:31;;;;;;;4.68;3.88;;;;;;;21.38;60.92;93095.75;5030048;28;20041;-92
2023/07/30 01:11:57;;;;;;;5.90;3.67;;;;;;;21.39;60.79;93100.69;5014205;28;20091;-92
2023/07/30 01:14:22;;;;;;;3.67;2.95;;;;;;;21.40;60.89;93117.94;5029599;28;20049;-92
2023/07/30 01:16:48;;;;;;;4.68;3.85;;;;;;;21.38;60.86;93117.75;5030553;28;20048;-92
2023/07/30 01:19:14;;;;;;;4.70;3.45;;;;;;;21.38;61.00;93120.50;5019365;28;20404;-92
2023/07/30 01:21:39;;;;;;;4.90;3.30;;;;;;;21.36;60.86;93123.03;5013808;28;20037;-92
2023/07/30 01:24:05;;;;;;;4.05;3.58;;;;;;;21.36;60.97;93132.03;5013013;28;20041;-92
2023/07/30 01:26:37;;;;;;;5.13;3.92;;;;;;;21.37;61.03;93127.25;5030146;28;20056;-92
2023/07/30 01:29:02;;;;;;;4.53;3.58;;;;;;;21.37;60.99;93117.00;5031322;28;20072;-91
2023/07/30 01:31:28;;;;;;;4.35;3.50;;;;;;;21.39;60.89;93110.97;5002808;28;20500;-92
2023/07/30 01:33:54;;;;;;;5.60;3.30;;;;;;;21.37;60.83;93114.25;5011103;28;20049;-92
2023/07/30 01:36:20;;;;;;;4.68;3.70;;;;;;;21.36;60.99;93103.78;5006975;28;20041;-92
2023/07/30 01:38:45;;;;;;;5.25;3.95;;;;;;;21.38;60.93;93107.47;5030377;28;20553;-91
2023/07/30 01:41:10;;;;;;;5.22;3.72;;;;;;;21.37;60.77;93108.75;5013256;28;20033;-92
2023/07/30 01:43:37;;;;;;;3.97;3.25;;;;;;;21.36;60.97;93098.28;5011393;28;20037;-92
2023/07/30 01:46:02;;;;;;;4.95;3.75;;;;;;;21.35;60.92;93097.56;5008332;28;20079;-93
2023/07/30 01:48:28;;;;;;;7.60;4.35;;;;;;;21.37;60.95;93086.75;5013106;28;20041;-92
2023/07/30 01:50:53;;;;;;;5.28;3.80;;;;;;;21.36;60.83;93092.78;5014084;28;20037;-92
2023/07/30 01:53:18;;;;;;;4.32;3.88;;;;;;;21.36;61.05;93095.53;5012670;28;20045;-93
2023/07/30 01:55:45;;;;;;;5.47;3.25;;;;;;;21.37;60.86;93094.25;5014008;28;20044;-93
2023/07/30 01:58:12;;;;;;;4.22;3.50;;;;;;;21.37;60.82;93084.00;5013479;28;20377;-92
2023/07/30 02:00:37;;;;;;;6.68;3.88;;;;;;;21.36;61.07;93079.03;5025424;28;20041;-92
2023/07/30 02:03:03;;;;;;;6.70;3.83;;;;;;;21.35;61.01;93075.56;5013636;28;20037;-92
2023/07/30 02:05:28;;;;;;;13.43;3.97;;;;;;;21.36;60.60;93074.28;5013308;28;20287;-93
2023/07/30 02:07:54;;;;;;;4.25;3.40;;;;;;;21.37;60.84;93086.00;5013555;28;20499;-93
2023/07/30 02:10:19;;;;;;;5.70;3.30;;;;;;;21.36;60.96;93093.53;5012371;28;20047;-92
2023/07/30 02:12:44;;;;;;;4.28;3.33;;;;;;;21.39;61.02;93091.72;5013465;28;20041;-92
2023/07/30 02:15:10;;;;;;;5.28;3.60;;;;;;;21.37;60.91;93086.75;5012435;28;20412;-91
2023/07/30 02:17:35;;;;;;;4.50;3.70;;;;;;;21.37;60.89;93086.75;5013142;28;20037;-93
2023/07/30 02:20:01;;;;;;;4.28;3.42;;;;;;;21.37;61.00;93092.25;5013525;28;20037;-92
2023/07/30 02:22:26;;;;;;;6.68;3.10;;;;;;;21.37;60.90;93083.25;5012761;28;20404;-92
2023/07/30 02:24:52;;;;;;;6.88;3.30;;;;;;;21.37;60.89;93081.25;5012193;28;20512;-92
2023/07/30 02:27:17;;;;;;;7.38;4.25;;;;;;;21.38;60.92;93085.47;5013400;28;20052;-92
2023/07/30 02:29:42;;;;;;;3.97;3.25;;;;;;;21.37;61.02;93088.75;5013210;28;20487;-92
2023/07/30 02:32:08;;;;;;;4.90;3.47;;;;;;;21.39;60.72;93088.97;5012754;28;20484;-92
2023/07/30 02:34:33;;;;;;;4.25;3.55;;;;;;;21.36;60.78;93079.03;5029910;28;20033;-92
2023/07/30 02:36:59;;;;;;;5.38;3.75;;;;;;;21.36;60.83;93074.28;5013220;28;20044;-93
2023/07/30 02:39:24;;;;;;;4.57;3.55;;;;;;;21.39;61.01;93059.47;5028300;28;20044;-91
2023/07/30 02:41:50;;;;;;;5.80;3.92;;;;;;;21.37;60.86;93069.50;5013180;28;20033;-91
2023/07/30 02:44:15;;;;;;;5.38;3.90;;;;;;;21.39;60.68;93053.97;5013077;28;20446;-92
2023/07/30 02:46:40;;;;;;;7.32;3.58;;;;;;;21.36;60.96;93051.53;5012710;28;20487;-92
2023/07/30 02:49:06;;;;;;;3.92;3.53;;;;;;;21.36;61.14;93062.53;5012825;28;20037;-93
2023/07/30 02:51:31;;;;;;;4.30;3.50;;;;;;;21.38;60.86;93066.22;5019798;28;20496;-93
2023/07/30 02:54:03;;;;;;;4.95;3.85;;;;;;;21.38;60.85;93057.97;5029353;28;20029;-91
2023/07/30 02:56:28;;;;;;;5.03;4.00;;;;;;;21.36;60.94;93060.53;5012891;28;20427;-91
2023/07/30 02:58:54;;;;;;;4.22;3.78;;;;;;;21.36;60.85;93057.03;5029674;28;20115;-93
2023/07/30 03:01:19;;;;;;;5.72;3.85;;;;;;;21.35;60.72;93059.06;5012000;28;20407;-93
2023/07/30 03:03:45;;;;;;;5.10;3.42;;;;;;;21.40;60.81;93060.19;5013181;28;20503;-92
2023/07/30 03:06:10;;;;;;;4.63;3.95;;;;;;;21.39;60.85;93059.47;5012666;28;20044;-93
2023/07/30 03:08:36;;;;;;;4.50;3.42;;;;;;;21.36;60.87;93063.28;5012903;28;20037;-93
2023/07/30 03:11:03;;;;;;;5.03;3.22;;;;;;;21.38;60.90;93060.72;5013385;28;20052;-93
2023/07/30 03:13:28;;;;;;;4.90;3.50;;;;;;;21.38;60.82;93071.72;5028960;28;20044;-92
2023/07/30 03:15:54;;;;;;;4.90;3.90;;;;;;;21.38;60.91;93071.72;5013051;28;20500;-92
2023/07/30 03:18:20;;;;;;;5.28;3.83;;;;;;;21.38;60.79;93065.50;5029246;28;20488;-92
2023/07/30 03:20:46;;;;;;;4.95;3.60;;;;;;;21.36;60.84;93068.78;5013290;28;20087;-92
2023/07/30 03:23:11;;;;;;;5.18;4.05;;;;;;;21.36;60.92;93079.03;5028699;28;20492;-91
2023/07/30 03:25:36;;;;;;;4.43;3.42;;;;;;;21.37;60.85;93075.75;5011922;28;20041;-92
2023/07/30 03:28:02;;;;;;;5.35;3.50;;;;;;;21.35;60.82;93083.81;5013010;28;20044;-92
2023/07/30 03:30:27;;;;;;;4.47;3.25;;;;;;;21.36;60.93;93085.28;5012087;28;20044;-92
2023/07/30 03:32:53;;;;;;;5.25;3.85;;;;;;;21.36;60.85;93092.78;5025699;28;20052;-92
2023/07/30 03:35:18;;;;;;;4.25;3.83;;;;;;;21.36;61.02;93085.28;5032021;28;20041;-92
2023/07/30 03:37:44;;;;;;;5.93;3.92;;;;;;;21.33;61.32;93083.59;5019296;28;20033;-93
2023/07/30 03:40:19;;;;;;;5.93;3.92;;;;;;;21.35;61.00;93072.06;5034598;28;20040;-92
2023/07/30 03:42:44;;;;;;;6.55;4.15;;;;;;;21.35;61.02;93083.81;5017824;28;20025;-92
2023/07/30 03:45:09;;;;;;;3.90;3.42;;;;;;;21.38;60.92;93082.00;5015552;28;20059;-91
2023/07/30 03:47:35;;;;;;;3.78;2.85;;;;;;;21.38;60.89;93088.22;5027690;28;20595;-92
2023/07/30 03:50:00;;;;;;;4.50;3.22;;;;;;;21.36;61.05;93082.53;4994959;28;20037;-91
2023/07/30 03:52:26;;;;;;;4.55;3.63;;;;;;;21.33;61.13;93088.34;4992158;28;20267;-91
2023/07/30 03:54:52;;;;;;;3.63;3.28;;;;;;;21.32;61.42;93082.13;4994770;28;20413;-92
2023/07/30 03:57:17;;;;;;;4.40;3.50;;;;;;;21.35;61.19;93083.06;4977097;28;20041;-92
2023/07/30 03:59:44;;;;;;;3.95;3.20;;;;;;;21.34;61.27;93082.31;4977875;28;20052;-91
2023/07/30 04:02:10;;;;;;;4.97;3.20;;;;;;;21.35;61.36;93085.81;4994441;28;20058;-91
2023/07/30 04:04:35;;;;;;;5.28;3.78;;;;;;;21.35;61.32;93088.56;5008068;28;20161;-92
2023/07/30 04:07:02;;;;;;;3.65;3.05;;;;;;;21.33;61.55;93088.34;5006171;28;20128;-92
2023/07/30 04:09:27;;;;;;;3.92;2.85;;;;;;;21.30;61.15;93079.16;4993964;28;20105;-92
2023/07/30 04:11:53;;;;;;;3.50;2.67;;;;;;;21.33;61.27;93088.34;4983164;28;20537;-92
2023/07/30 04:14:18;;;;;;;3.97;3.08;;;;;;;21.34;61.07;93085.06;5004232;28;20041;-91
2023/07/30 04:16:46;;;;;;;4.60;3.17;;;;;;;21.33;61.06;93094.59;5002767;28;20052;-93
2023/07/30 04:19:12;;;;;;;3.30;2.88;;;;;;;21.34;61.65;93098.09;5001233;28;20136;-91
2023/07/30 04:21:37;;;;;;;4.25;3.00;;;;;;;21.31;61.34;93099.88;5014493;28;20057;-92
2023/07/30 04:24:04;;;;;;;4.53;3.30;;;;;;;21.34;61.07;93106.34;5015347;28;20053;-93
2023/07/30 04:26:29;;;;;;;3.70;3.28;;;;;;;21.32;61.13;93093.13;5014719;28;20055;-91
2023/07/30 04:28:55;;;;;;;5.85;3.50;;;;;;;21.33;61.13;93096.59;5014964;28;20052;-91
2023/07/30 04:31:20;;;;;;;3.72;3.10;;;;;;;21.35;61.08;93099.56;5014113;28;20060;-92
2023/07/30 04:33:46;;;;;;;3.15;2.80;;;;;;;21.31;61.14;93107.41;5014712;28;20041;-91
2023/07/30 04:36:11;;;;;;;3.90;3.20;;;;;;;21.30;61.16;93095.66;4994668;28;20041;-92
2023/07/30 04:38:36;;;;;;;4.25;3.10;;;;;;;21.30;61.33;93106.66;5010842;28;20045;-92
2023/07/30 04:41:02;;;;;;;4.47;3.28;;;;;;;21.32;61.03;93098.63;5015800;28;20041;-93
2023/07/30 04:43:28;;;;;;;4.05;3.17;;;;;;;21.33;61.28;93105.59;5014167;28;20044;-92
2023/07/30 04:45:53;;;;;;;3.72;3.30;;;;;;;21.30;61.20;93109.41;5015690;28;20045;-92
2023/07/30 04:48:19;;;;;;;4.20;3.08;;;;;;;21.32;61.30;93103.38;5014399;28;20037;-91
2023/07/30 04:50:44;;;;;;;3.35;2.90;;;;;;;21.31;61.17;93105.38;5030650;28;20041;-92
2023/07/30 04:53:10;;;;;;;3.83;2.90;;;;;;;21.33;61.26;93107.59;5014539;28;20037;-91
2023/07/30 04:55:35;;;;;;;4.78;3.42;;;;;;;21.31;61.06;93102.63;5015056;28;20045;-92
2023/07/30 04:58:03;;;;;;;3.13;2.78;;;;;;;21.31;61.22;93108.13;5015157;28;20029;-91
2023/07/30 05:00:29;;;;;;;4.43;3.08;;;;;;;21.31;61.21;93110.16;5014268;28;20348;-92
2023/07/30 05:02:54;;;;;;;3.13;2.75;;;;;;;21.31;61.07;93110.16;5018110;28;20041;-92
2023/07/30 05:05:19;;;;;;;3.30;2.70;;;;;;;21.29;61.28;93123.69;5027240;28;20389;-92
2023/07/30 05:07:45;;;;;;;3.55;2.67;;;;;;;21.30;61.21;93116.94;5028174;28;20519;-92
2023/07/30 05:10:10;;;;;;;3.97;3.30;;;;;;;21.31;61.14;93123.91;5020637;28;20487;-91
2023/07/30 05:12:36;;;;;;;4.20;3.10;;;;;;;21.30;61.14;93119.66;5013532;28;20048;-92
2023/07/30 05:15:02;;;;;;;4.35;3.42;;;;;;;21.30;61.10;93128.66;5014899;28;20499;-91
2023/07/30 05:17:27;;;;;;;4.18;3.03;;;;;;;21.30;61.29;93130.66;5014188;28;20105;-92
2023/07/30 05:19:53;;;;;;;3.55;2.67;;;;;;;21.29;61.19;93113.44;5030802;28;20044;-92
2023/07/30 05:22:19;;;;;;;3.33;2.85;;;;;;;21.33;61.23;93107.59;5013621;28;20059;-93
2023/07/30 05:24:44;;;;;;;3.95;2.85;;;;;;;21.29;61.24;93110.69;5031121;28;20128;-93
2023/07/30 05:27:10;;;;;;;2.70;2.50;;;;;;;21.29;61.18;93101.69;5011988;28;20057;-92
2023/07/30 05:29:35;;;;;;;4.22;2.83;;;;;;;21.30;61.31;93100.44;5004156;28;20065;-94
2023/07/30 05:32:00;;;;;;;3.08;2.67;;;;;;;21.29;61.22;93112.69;5014570;28;20046;-92
2023/07/30 05:34:26;;;;;;;4.20;2.85;;;;;;;21.29;60.97;93105.19;5012997;28;20037;-91
2023/07/30 05:36:51;;;;;;;2.58;2.33;;;;;;;21.29;61.44;93101.69;5005426;28;20500;-92
2023/07/30 05:39:17;;;;;;;5.18;2.78;;;;;;;21.29;61.10;93096.94;5014272;28;20388;-92
2023/07/30 05:41:42;;;;;;;2.92;2.65;;;;;;;21.29;61.15;93110.69;5014029;28;20045;-92
2023/07/30 05:44:07;;;;;;;4.60;3.75;;;;;;;21.29;61.11;93109.94;5013769;28;20407;-91
2023/07/30 05:46:33;;;;;;;4.10;2.63;;;;;;;21.27;61.40;93121.47;5014266;28;20475;-92
2023/07/30 05:48:58;;;;;;;3.45;2.60;;;;;;;21.27;61.21;93129.00;5026286;28;20396;-91
2023/07/30 05:51:24;;;;;;;3.75;2.70;;;;;;;;;;5010315;28;20037;-91
2023/07/30 05:53:49;;;;;;;3.83;2.40;;;;;;;21.28;61.26;93133.97;5030645;28;20068;-92
2023/07/30 05:56:18;;;;;;;5.07;2.88;;;;;;;21.25;61.18;93128.78;5013218;28;20282;-92
2023/07/30 05:58:43;;;;;;;3.38;2.80;;;;;;;;;;5013962;28;20420;-92
2023/07/30 06:01:09;;;;;;;6.87;2.57;;;;;;;21.26;61.38;93138.50;5044001;28;20044;-92
2023/07/30 06:03:34;;;;;;;2.78;2.47;;;;;;;21.24;60.86;93139.03;5011258;28;20288;-91
2023/07/30 06:06:01;;;;;;;3.67;2.65;;;;;;;21.23;60.89;93137.56;5013318;28;20399;-92
2023/07/30 06:08:26;;;;;;;3.03;2.38;;;;;;;21.22;61.11;93149.84;5012768;28;20041;-92
2023/07/30 06:10:52;;;;;;;3.25;2.42;;;;;;;21.22;61.09;93141.59;5014009;28;20033;-92
2023/07/30 06:13:17;;;;;;;3.25;2.50;;;;;;;21.20;61.35;93138.66;5012389;28;20052;-93
2023/07/30 06:15:43;;;;;;;3.95;2.53;;;;;;;21.20;61.21;93147.66;5026581;28;20041;-93
2023/07/30 06:18:09;;;;;;;2.50;1.98;;;;;;;21.22;61.20;93154.63;5011167;28;20041;-91
2023/07/30 06:20:35;;;;;;;4.85;2.15;;;;;;;21.22;61.24;93144.34;5013097;28;20102;-93
2023/07/30 06:23:00;;;;;;;5.15;2.90;;;;;;;21.20;61.27;93144.91;5014123;28;20037;-93
2023/07/30 06:25:26;;;;;;;4.72;3.33;;;;;;;21.22;61.15;93160.13;5012385;28;20055;-92
2023/07/30 06:27:51;;;;;;;2.50;2.30;;;;;;;21.26;61.18;93166.00;5013275;28;20075;-91
2023/07/30 06:30:17;;;;;;;3.40;2.70;;;;;;;21.24;61.14;93157.56;5012730;28;20049;-92
2023/07/30 06:32:42;;;;;;;2.25;2.03;;;;;;;21.22;61.27;93160.13;5029852;28;20144;-93
2023/07/30 06:35:07;;;;;;;2.60;2.03;;;;;;;;;;5024668;28;20033;-92
2023/07/30 06:37:33;;;;;;;2.65;2.30;;;;;;;21.23;61.14;93159.56;5026675;28;20696;-92
2023/07/30 06:39:59;;;;;;;2.67;2.25;;;;;;;21.27;60.99;93161.97;4997196;28;20388;-92
2023/07/30 06:42:24;;;;;;;3.42;2.60;;;;;;;21.23;61.36;93158.81;5012206;28;20049;-92
2023/07/30 06:44:50;;;;;;;3.05;2.45;;;;;;;21.24;61.46;93163.78;5013646;28;20592;-93
2023/07/30 06:47:16;;;;;;;3.50;2.90;;;;;;;21.21;61.44;93164.88;5011891;28;20484;-93
2023/07/30 06:49:42;;;;;;;3.75;2.17;;;;;;;21.24;61.38;93163.78;5013034;28;20041;-93
2023/07/30 06:52:07;;;;;;;2.33;1.70;;;;;;;21.25;61.31;93164.53;5027006;28;20492;-91
2023/07/30 06:54:33;;;;;;;5.78;2.83;;;;;;;21.20;61.17;93168.91;5013271;28;20041;-92
2023/07/30 06:56:59;;;;;;;2.25;2.00;;;;;;;21.22;61.08;93182.13;5014007;28;20333;-92
2023/07/30 06:59:24;;;;;;;3.33;2.30;;;;;;;21.22;61.20;93174.56;5029452;28;20106;-92
2023/07/30 07:01:50;;;;;;;4.45;2.78;;;;;;;21.22;61.33;93173.88;5025436;28;20041;-93
2023/07/30 07:04:15;;;;;;;2.63;2.08;;;;;;;21.24;61.16;93180.28;5008987;28;20045;-92
2023/07/30 07:06:41;;;;;;;2.75;2.25;;;;;;;21.22;61.07;93173.88;5026030;28;20041;-93
2023/07/30 07:09:06;;;;;;;2.78;2.20;;;;;;;21.23;61.02;93176.06;5030015;28;20037;-91
2023/07/30 07:11:31;;;;;;;3.40;2.60;;;;;;;21.24;61.37;93185.78;5016644;28;20033;-92
2023/07/30 07:13:57;;;;;;;3.13;2.38;;;;;;;21.23;61.29;93186.31;5016492;28;20049;-91
2023/07/30 07:16:22;;;;;;;3.28;2.78;;;;;;;21.25;61.26;93192.03;5016180;28;20053;-92
2023/07/30 07:18:48;;;;;;;2.85;2.55;;;;;;;21.22;61.16;93185.56;5016488;28;20493;-92
2023/07/30 07:21:14;;;;;;;3.60;2.95;;;;;;;;;;5012948;28;20053;-92
2023/07/30 07:23:39;;;;;;;3.20;2.10;;;;;;;21.25;61.47;93197.53;5033316;28;20060;-92
2023/07/30 07:26:06;;;;;;;2.83;2.35;;;;;;;21.26;61.02;93201.75;5015467;28;20106;-93
2023/07/30 07:28:31;;;;;;;4.25;2.80;;;;;;;21.20;61.48;93199.88;5016101;28;20060;-91
2023/07/30 07:30:57;;;;;;;2.88;2.58;;;;;;;21.23;61.32;93191.81;5033546;28;20037;-92
2023/07/30 07:33:22;;;;;;;3.75;2.08;;;;;;;21.22;61.55;93204.09;5015406;28;20095;-92
2023/07/30 07:35:47;;;;;;;2.60;2.13;;;;;;;21.20;61.49;93202.63;5033165;28;20106;-92
2023/07/30 07:38:13;;;;;;;2.80;2.10;;;;;;;21.20;61.54;93210.88;5015546;28;20044;-92
2023/07/30 07:40:39;;;;;;;2.78;2.20;;;;;;;21.23;61.48;93216.56;5032715;28;20110;-92
2023/07/30 07:43:05;;;;;;;2.60;2.40;;;;;;;21.24;61.46;93218.03;4999950;28;20041;-92
2023/07/30 07:45:31;;;;;;;2.70;2.20;;;;;;;21.24;61.34;93215.28;5015706;28;20067;-92
2023/07/30 07:47:56;;;;;;;2.65;2.35;;;;;;;21.27;61.16;93214.22;5032844;28;20126;-93
2023/07/30 07:50:22;;;;;;;2.63;2.10;;;;;;;21.27;61.07;93208.72;5031596;28;20044;-93
2023/07/30 07:52:48;;;;;;;2.20;2.00;;;;;;;21.28;61.26;93210.19;5016544;28;20106;-91
2023/07/30 07:55:13;;;;;;;3.05;2.40;;;;;;;21.28;61.20;93201.94;5015590;28;20045;-92
2023/07/30 07:57:40;;;;;;;2.65;2.42;;;;;;;21.28;61.52;93204.69;5015836;28;20052;-92
2023/07/30 08:00:06;;;;;;;3.28;1.90;;;;;;;21.28;61.32;93202.69;5015848;28;20083;-92
2023/07/30 08:02:32;;;;;;;2.38;2.10;;;;;;;21.28;61.37;93199.94;5032269;28;20041;-92
2023/07/30 08:04:57;;;;;;;2.90;2.22;;;;;;;21.30;61.42;93197.41;5016420;28;20037;-92
2023/07/30 08:07:23;;;;;;;3.08;2.20;;;;;;;21.31;61.21;93200.88;5021982;28;20045;-93
2023/07/30 08:09:48;;;;;;;3.67;2.30;;;;;;;21.32;61.03;93207.88;5028986;28;20038;-93
2023/07/30 08:12:14;;;;;;;3.05;2.30;;;;;;;21.33;61.08;93207.31;5028408;28;20041;-92
2023/07/30 08:14:39;;;;;;;2.65;2.10;;;;;;;21.36;61.25;93203.50;5014913;28;20063;-93
2023/07/30 08:17:05;;;;;;;2.92;2.38;;;;;;;21.35;61.11;93206.78;5015215;28;20041;-92
2023/07/30 08:19:30;;;;;;;2.63;1.98;;;;;;;21.36;61.06;93205.53;5015436;28;20049;-91
2023/07/30 08:21:56;;;;;;;3.08;1.88;;;;;;;21.36;61.07;93211.75;5029092;28;20048;-92
2023/07/30 08:24:22;;;;;;;2.80;2.13;;;;;;;21.38;60.97;93217.47;5028132;28;20463;-92
2023/07/30 08:26:48;;;;;;;2.80;2.10;;;;;;;21.36;60.97;93208.28;5028960;28;20037;-91
2023/07/30 08:29:13;;;;;;;2.72;2.15;;;;;;;21.39;60.90;93212.72;5014873;28;20515;-91
2023/07/30 08:31:39;;;;;;;2.63;2.08;;;;;;;21.40;61.04;93200.44;5015279;28;20119;-92
2023/07/30 08:34:04;;;;;;;2.78;2.10;;;;;;;21.39;61.10;93205.19;5014558;28;20458;-92
2023/07/30 08:36:30;;;;;;;2.63;1.90;;;;;;;21.39;61.01;93205.19;5014900;28;20457;-92
2023/07/30 08:38:55;;;;;;;2.92;2.30;;;;;;;21.42;60.96;93208.88;5015201;28;20037;-92
2023/07/30 08:41:21;;;;;;;3.40;2.08;;;;;;;21.43;61.09;93207.63;5014196;28;20049;-93
2023/07/30 08:43:49;;;;;;;2.30;2.05;;;;;;;21.50;60.70;93206.94;5031313;28;20079;-91
2023/07/30 08:46:16;;;;;;;6.18;2.08;;;;;;;21.40;60.94;93211.44;5013825;28;20112;-92
2023/07/30 08:48:41;;;;;;;5.10;2.20;;;;;;;21.41;60.74;93210.91;5015185;28;20079;-93
2023/07/30 08:51:07;;;;;;;11.07;2.33;;;;;;;21.40;60.83;93201.19;5030934;28;20519;-92
2023/07/30 08:53:32;;;;;;;4.93;2.13;;;;;;;21.41;60.90;93201.91;5014723;28;20521;-92
2023/07/30 08:55:58;;;;;;;3.17;2.10;;;;;;;21.43;60.83;93204.88;5015028;28;20415;-92
2023/07/30 08:58:23;;;;;;;2.55;2.20;;;;;;;21.44;60.81;93201.56;5014061;28;20426;-92
2023/07/30 09:00:49;;;;;;;3.10;2.33;;;;;;;21.48;60.71;93199.22;5015016;28;20052;-92
2023/07/30 09:03:15;;;;;;;4.90;2.00;;;;;;;21.44;60.81;93201.56;5013641;28;20431;-93
2023/07/30 09:05:40;;;;;;;1.70;1.60;;;;;;;21.43;60.86;93204.88;5014837;28;20492;-92
2023/07/30 09:08:06;;;;;;;2.97;2.30;;;;;;;21.42;60.83;93198.63;5014087;28;20033;-91
2023/07/30 09:10:31;;;;;;;3.47;2.25;;;;;;;21.43;60.74;93199.38;5014637;28;20808;-93
2023/07/30 09:13:00;;;;;;;2.50;2.03;;;;;;;21.44;60.91;93206.31;5030747;28;20502;-92
2023/07/30 09:15:39;;;;;;;1.60;1.45;;;;;;;21.46;60.38;93196.25;5014436;28;20080;-92
2023/07/30 09:18:05;;;;;;;3.10;2.75;;;;;;;21.47;60.67;93210.75;5014689;28;20131;-93
2023/07/30 09:20:38;;;;;;;2.42;2.00;;;;;;;21.47;60.43;93210.75;5014086;28;20049;-93
2023/07/30 09:23:05;;;;;;;2.00;1.38;;;;;;;21.48;60.53;93201.97;5013738;28;20411;-92
2023/07/30 09:25:30;;;;;;;2.20;1.73;;;;;;;21.47;60.56;93200.50;5014001;28;20036;-92
2023/07/30 09:27:56;;;;;;;5.75;1.90;;;;;;;21.45;60.73;93200.28;5029823;28;20059;-93
2023/07/30 09:30:25;;;;;;;2.40;1.95;;;;;;;21.49;60.42;93192.44;5013616;28;20086;-93
2023/07/30 09:32:52;;;;;;;2.08;1.90;;;;;;;21.50;60.57;93198.69;5030077;28;20491;-92
2023/07/30 09:35:20;;;;;;;2.63;2.03;;;;;;;21.48;60.40;93195.72;5018207;28;20044;-92
2023/07/30 09:37:46;;;;;;;2.15;1.90;;;;;;;21.48;60.66;93192.97;5029396;28;20041;-93
2023/07/30 09:40:14;;;;;;;2.42;1.98;;;;;;;21.46;60.60;93196.25;5023859;28;20056;-92
2023/07/30 09:42:42;;;;;;;2.92;2.15;;;;;;;21.48;60.59;93196.47;5030689;28;20095;-92
2023/07/30 09:45:16;;;;;;;4.05;2.17;;;;;;;21.49;60.31;93203.44;5013676;28;20098;-92
2023/07/30 09:47:46;;;;;;;2.08;1.80;;;;;;;21.48;60.58;93204.72;5030923;28;20037;-92
2023/07/30 09:50:11;;;;;;;1.95;1.50;;;;;;;21.52;60.42;93204.38;5013394;28;20067;-92
2023/07/30 09:52:37;;;;;;;3.97;1.95;;;;;;;21.50;60.69;93190.44;5030001;28;20041;-93
2023/07/30 09:55:02;;;;;;;2.00;1.70;;;;;;;21.52;60.36;93196.88;5013888;28;20093;-92
2023/07/30 09:57:28;;;;;;;2.30;1.70;;;;;;;21.52;60.33;93196.88;5013693;28;20087;-93
2023/07/30 09:59:53;;;;;;;2.28;2.00;;;;;;;21.52;60.37;93191.38;5031326;28;20041;-92
2023/07/30 10:02:20;;;;;;;2.15;1.60;;;;;;;21.52;60.59;93198.88;5028491;28;20163;-93
2023/07/30 10:04:48;;;;;;;2.30;1.65;;;;;;;21.52;60.29;93196.88;5013962;28;20048;-93
2023/07/30 10:07:16;;;;;;;2.58;1.73;;;;;;;21.54;59.92;93201.84;5013047;28;20045;-92
2023/07/30 10:09:45;;;;;;;2.08;1.75;;;;;;;21.58;60.19;93185.00;5013630;28;20106;-92
2023/07/30 10:12:13;;;;;;;2.00;1.77;;;;;;;21.55;60.26;93186.81;5014057;28;20045;-93
2023/07/30 10:14:38;;;;;;;2.67;2.25;;;;;;;21.56;60.14;93196.53;5011558;28;20357;-92
2023/07/30 10:17:04;;;;;;;2.10;1.60;;;;;;;21.55;60.32;93195.06;5001906;28;20099;-93
2023/07/30 10:19:29;;;;;;;2.20;1.88;;;;;;;21.59;60.15;93191.97;5005826;28;20052;-94
2023/07/30 10:22:21;;;;;;;3.20;1.90;;;;;;;21.55;60.35;93197.81;4993925;28;20041;-92
2023/07/30 10:25:00;;;;;;;2.15;1.85;;;;;;;21.58;60.16;93194.00;5012606;28;20525;-92
2023/07/30 10:27:27;;;;;;;3.55;1.95;;;;;;;21.59;60.24;93192.72;5005033;28;20042;-91
2023/07/30 10:30:13;;;;;;;1.98;1.73;;;;;;;21.58;60.45;93191.25;5030675;28;20079;-92
2023/07/30 10:32:41;;;;;;;2.28;2.08;;;;;;;21.58;60.25;93190.50;5013349;28;20064;-92
2023/07/30 10:35:07;;;;;;;2.45;1.90;;;;;;;21.57;60.32;93186.28;5014036;28;20762;-93
2023/07/30 10:37:32;;;;;;;1.70;1.60;;;;;;;21.56;60.24;93191.03;5013818;28;20614;-93
2023/07/30 10:39:59;;;;;;;2.53;1.73;;;;;;;21.57;59.89;93189.78;5013171;28;20040;-91
2023/07/30 10:42:32;;;;;;;2.17;1.80;;;;;;;21.59;60.25;93183.72;5019466;28;20034;-92
2023/07/30 10:44:57;;;;;;;2.55;2.20;;;;;;;21.57;60.05;93181.53;5019521;28;20470;-92
2023/07/30 10:47:26;;;;;;;2.15;1.60;;;;;;;21.61;60.10;93181.19;5007000;28;20045;-92
2023/07/30 10:49:53;;;;;;;2.17;1.98;;;;;;;21.61;60.03;93178.44;5018215;28;20029;-92
2023/07/30 10:52:24;;;;;;;2.28;1.27;;;;;;;21.59;60.13;93184.47;5016335;28;20128;-92
2023/07/30 10:54:50;;;;;;;;;;;;;;;21.61;60.03;93179.16;5018098;28;20195;-92
2023/07/30 10:57:16;;;;;;;2.45;2.05;;;;;;;21.58;60.01;93185.00;5033090;28;19924;-93
2023/07/30 10:59:41;;;;;;;1.65;1.40;;;;;;;21.61;60.28;93183.94;5017937;28;20635;-93
2023/07/30 11:02:08;;;;;;;2.10;1.90;;;;;;;21.61;60.04;93184.69;5016670;28;20037;-92
2023/07/30 11:04:34;;;;;;;1.83;1.50;;;;;;;21.60;60.12;93191.44;5017393;28;20075;-92
2023/07/30 11:06:59;;;;;;;3.15;1.50;;;;;;;21.62;60.04;93194.41;5017870;28;20034;-92
2023/07/30 11:09:26;;;;;;;2.38;1.85;;;;;;;21.62;60.19;93204.66;5027327;28;20596;-92
2023/07/30 11:11:53;;;;;;;1.88;1.65;;;;;;;21.65;59.74;93203.59;5017431;28;20124;-93
2023/07/30 11:14:22;;;;;;;2.17;1.60;;;;;;;21.68;59.64;93200.50;5030936;28;20091;-92
2023/07/30 11:16:51;;;;;;;1.75;1.60;;;;;;;21.63;59.94;93206.16;5010992;28;20049;-92
2023/07/30 11:19:17;;;;;;;2.97;1.70;;;;;;;21.64;60.06;93210.38;4982938;28;20034;-92
2023/07/30 11:21:47;;;;;;;2.72;2.40;;;;;;;21.63;59.84;93198.63;5028994;28;20052;-92
2023/07/30 11:24:12;;;;;;;2.55;2.00;;;;;;;21.64;59.86;93210.38;4978903;28;20057;-91
2023/07/30 11:26:38;;;;;;;2.30;2.00;;;;;;;21.63;59.88;93201.38;4992803;28;20144;-92
2023/07/30 11:29:19;;;;;;;26.73;16.92;;;;;;;21.62;60.00;93202.66;5031586;28;20048;-92
2023/07/30 11:31:44;;;;;;;14.07;9.50;;;;;;;21.62;60.02;93205.41;5015654;28;20467;-92